Time;durP1;ratioP1;P1;durP2;ratioP2;P2;SDS_P1;SDS_P2;PMS_P1;PMS_P2;Temp;Humidity;BMP_temperature;BMP_pressure;BME280_temperature;BME280_humidity;BME280_pressure;Samples;Min_cycle;Max_cycle;Signal;HPM_P1;HPM_P2
2022/06/07 00:01:25;;;;;;;11.17;4.33;;;17.50;56.70;;;;;;5033197;28;45859;-63
2022/06/07 00:03:51;;;;;;;8.90;4.30;;;17.50;56.70;;;;;;5031487;28;46397;-64
2022/06/07 00:06:16;;;;;;;7.90;3.80;;;17.50;56.90;;;;;;5031945;28;46303;-63
2022/06/07 00:08:42;;;;;;;8.50;4.30;;;17.40;57.10;;;;;;5030545;28;46390;-63
2022/06/07 00:11:08;;;;;;;7.27;4.30;;;17.30;57.40;;;;;;5030493;28;46473;-63
2022/06/07 00:13:34;;;;;;;6.93;3.93;;;17.20;57.80;;;;;;5032052;28;46370;-63
2022/06/07 00:15:59;;;;;;;8.77;4.83;;;17.10;58.20;;;;;;5033610;28;46245;-63
2022/06/07 00:18:25;;;;;;;8.13;4.00;;;17.10;58.20;;;;;;5027412;28;46407;-64
2022/06/07 00:20:50;;;;;;;9.67;4.90;;;17.10;58.20;;;;;;5033524;28;46525;-63
2022/06/07 00:23:18;;;;;;;20.90;5.50;;;17.00;58.10;;;;;;5035630;28;47073;-63
2022/06/07 00:25:48;;;;;;;6.93;4.80;;;17.00;58.20;;;;;;5030321;28;46198;-64
2022/06/07 00:28:14;;;;;;;10.20;5.10;;;16.90;59.90;;;;;;5031977;28;46473;-63
2022/06/07 00:30:40;;;;;;;6.20;4.20;;;16.90;59.50;;;;;;5030264;28;46556;-63
2022/06/07 00:33:06;;;;;;;9.73;4.20;;;16.80;59.90;;;;;;5030441;28;47387;-64
2022/06/07 00:35:32;;;;;;;6.73;4.60;;;16.80;60.00;;;;;;5030882;28;46463;-63
2022/06/07 00:37:58;;;;;;;7.77;4.53;;;16.70;60.30;;;;;;5029616;28;46395;-63
2022/06/07 00:40:23;;;;;;;5.83;4.20;;;16.80;60.70;;;;;;5030763;28;46648;-62
2022/06/07 00:42:49;;;;;;;9.27;4.93;;;16.70;60.90;;;;;;5028557;28;46361;-61
2022/06/07 00:45:18;;;;;;;6.80;4.50;;;16.70;61.00;;;;;;5032493;28;46432;-63
2022/06/07 00:47:43;;;;;;;9.97;5.20;;;16.70;61.20;;;;;;5030439;28;45876;-63
2022/06/07 00:50:30;;;;;;;7.60;4.70;;;16.60;61.50;;;;;;5031796;28;46583;-63
2022/06/07 00:52:56;;;;;;;8.30;5.33;;;16.60;62.10;;;;;;5030999;28;46993;-62
2022/06/07 00:55:21;;;;;;;18.73;4.50;;;16.60;61.90;;;;;;5029648;28;46397;-62
2022/06/07 00:57:47;;;;;;;6.43;4.67;;;16.50;62.10;;;;;;5032174;28;46576;-63
2022/06/07 01:00:16;;;;;;;9.93;4.70;;;16.50;62.30;;;;;;5030764;28;46364;-63
2022/06/07 01:02:42;;;;;;;10.63;5.07;;;16.50;62.70;;;;;;5029884;28;47218;-63
2022/06/07 01:05:08;;;;;;;8.00;4.30;;;16.40;62.70;;;;;;5031081;28;46453;-62
2022/06/07 01:13:02;;;;;;;9.60;4.60;;;16.50;62.60;;;;;;5033084;28;46338;-63
2022/06/07 01:15:28;;;;;;;7.77;4.70;;;16.50;62.50;;;;;;5031313;28;46448;-62
2022/06/07 01:17:53;;;;;;;8.63;4.30;;;16.40;62.70;;;;;;5029692;28;46465;-62
2022/06/07 01:20:19;;;;;;;7.13;4.00;;;16.40;62.90;;;;;;5030160;28;46372;-62
2022/06/07 01:22:45;;;;;;;7.57;4.37;;;16.40;64.10;;;;;;5029384;28;46489;-63
2022/06/07 01:25:10;;;;;;;5.43;4.07;;;16.40;62.90;;;;;;5030308;28;46233;-62
2022/06/07 01:27:36;;;;;;;6.13;4.30;;;16.40;62.90;;;;;;5033322;28;46410;-63
2022/06/07 01:30:04;;;;;;;10.90;5.07;;;16.40;63.10;;;;;;5026118;28;46500;-63
2022/06/07 01:32:30;;;;;;;10.40;5.40;;;16.40;63.30;;;;;;5030427;28;47256;-63
2022/06/07 01:34:55;;;;;;;8.70;4.37;;;16.30;64.60;;;;;;5033708;28;46433;-63
2022/06/07 01:37:21;;;;;;;6.30;4.13;;;16.30;63.80;;;;;;5033163;28;46334;-63
2022/06/07 01:42:31;;;;;;;5.97;4.43;;;16.30;63.90;;;;;;5031159;28;45985;-61
2022/06/07 01:44:57;;;;;;;6.30;4.33;;;16.30;63.90;;;;;;5032088;28;46488;-60
2022/06/07 01:47:27;;;;;;;8.30;4.70;;;16.30;63.80;;;;;;5028177;28;46425;-61
2022/06/07 01:49:53;;;;;;;8.07;4.33;;;16.40;63.90;;;;;;5030073;28;46442;-62
2022/06/07 01:52:21;;;;;;;6.83;4.90;;;16.40;63.90;;;;;;5028953;28;46625;-61
2022/06/07 01:54:47;;;;;;;9.70;4.90;;;16.40;63.90;;;;;;5031189;28;46236;-61
2022/06/07 01:57:13;;;;;;;6.70;4.70;;;16.40;63.90;;;;;;5027975;28;46358;-62
2022/06/07 01:59:39;;;;;;;9.93;5.30;;;16.40;64.00;;;;;;5025535;28;46449;-63
2022/06/07 02:02:06;;;;;;;9.10;5.00;;;16.40;64.10;;;;;;5029187;28;46386;-63
2022/06/07 02:04:34;;;;;;;5.67;4.53;;;16.50;64.30;;;;;;5028744;28;46474;-63
2022/06/07 02:07:00;;;;;;;7.40;5.10;;;16.50;64.40;;;;;;5026096;28;46378;-63
2022/06/07 02:09:26;;;;;;;8.80;4.57;;;16.50;65.60;;;;;;5028624;28;46410;-63
2022/06/07 02:11:51;;;;;;;7.50;5.27;;;16.50;64.60;;;;;;5032176;28;46976;-63
2022/06/07 02:14:17;;;;;;;6.50;4.97;;;16.50;64.50;;;;;;5031836;28;46550;-62
2022/06/07 02:16:43;;;;;;;8.47;5.27;;;16.60;64.60;;;;;;5028559;28;46415;-64
2022/06/07 02:19:09;;;;;;;8.47;4.90;;;16.60;64.50;;;;;;5031751;28;46508;-63
2022/06/07 02:21:36;;;;;;;6.80;4.87;;;16.60;64.50;;;;;;5025049;28;46477;-64
2022/06/07 02:24:04;;;;;;;7.40;5.03;;;16.60;64.50;;;;;;5026331;28;46473;-62
2022/06/07 02:26:35;;;;;;;7.70;5.13;;;16.60;64.70;;;;;;5026177;28;46402;-63
2022/06/07 02:29:12;;;;;;;8.30;5.50;;;16.60;64.80;;;;;;5028486;28;46430;-62
2022/06/07 02:31:42;;;;;;;7.37;5.40;;;16.60;65.00;;;;;;5028550;28;46410;-63
2022/06/07 02:34:08;;;;;;;12.33;5.00;;;16.60;65.00;;;;;;5025263;28;46442;-63
2022/06/07 02:36:36;;;;;;;7.43;5.60;;;16.60;65.20;;;;;;5029792;28;46455;-62
2022/06/07 02:39:02;;;;;;;9.13;5.47;;;16.60;65.20;;;;;;5028161;28;46528;-62
2022/06/07 02:41:30;;;;;;;8.60;5.10;;;16.60;65.20;;;;;;5030210;28;47930;-63
2022/06/07 02:43:56;;;;;;;8.93;5.20;;;16.60;65.30;;;;;;5035060;28;46591;-61
2022/06/07 02:46:22;;;;;;;8.20;4.70;;;16.60;65.60;;;;;;5031336;28;45798;-63
2022/06/07 02:48:47;;;;;;;6.87;5.10;;;16.60;65.80;;;;;;5035894;28;46462;-63
2022/06/07 02:51:13;;;;;;;8.27;5.37;;;16.50;65.70;;;;;;5036868;28;47205;-64
2022/06/07 02:53:39;;;;;;;10.40;5.30;;;16.50;65.90;;;;;;5031488;28;46597;-61
2022/06/07 02:56:05;;;;;;;11.30;5.00;;;16.50;66.20;;;;;;5034864;28;46346;-63
2022/06/07 02:58:31;;;;;;;5.70;4.13;;;16.40;66.40;;;;;;5033819;28;46431;-63
2022/06/07 03:00:58;;;;;;;6.30;4.60;;;16.40;66.30;;;;;;5032700;28;46512;-63
2022/06/07 03:03:27;;;;;;;11.03;4.87;;;16.40;66.40;;;;;;5031765;28;46645;-63
2022/06/07 03:05:53;;;;;;;7.23;4.10;;;16.40;66.50;;;;;;5031750;28;46793;-61
2022/06/07 03:08:20;;;;;;;5.90;4.13;;;16.30;66.40;;;;;;5032241;28;46459;-62
2022/06/07 03:10:47;;;;;;;9.43;4.10;;;16.30;66.50;;;;;;5032629;28;46066;-63
2022/06/07 03:13:13;;;;;;;6.93;4.30;;;16.30;66.50;;;;;;5032020;28;46388;-64
2022/06/07 03:15:40;;;;;;;5.60;4.20;;;16.30;66.40;;;;;;5030933;28;46377;-61
2022/06/07 03:18:06;;;;;;;6.80;4.20;;;16.40;66.40;;;;;;5031884;28;46374;-63
2022/06/07 03:20:33;;;;;;;4.70;3.53;;;16.30;66.40;;;;;;5030431;28;46397;-64
2022/06/07 03:22:58;;;;;;;4.97;3.90;;;16.30;66.60;;;;;;5030648;28;46504;-66
2022/06/07 03:25:25;;;;;;;7.60;4.23;;;16.30;66.70;;;;;;5026547;28;46474;-63
2022/06/07 03:27:51;;;;;;;6.73;4.17;;;16.30;66.50;;;;;;5031239;28;46812;-62
2022/06/07 03:30:17;;;;;;;4.97;4.00;;;16.30;66.40;;;;;;5027949;28;48200;-63
2022/06/07 03:32:43;;;;;;;5.13;3.80;;;16.30;66.40;;;;;;5033733;28;46422;-62
2022/06/07 03:35:10;;;;;;;5.83;3.93;;;16.40;66.00;;;;;;5034191;28;46324;-63
2022/06/07 03:37:37;;;;;;;7.13;3.90;;;16.40;65.80;;;;;;5028937;28;45915;-65
2022/06/07 03:40:04;;;;;;;8.90;4.23;;;16.30;66.10;;;;;;5030330;28;48178;-63
2022/06/07 03:42:30;;;;;;;6.33;3.50;;;16.20;66.50;;;;;;5034229;28;46475;-63
2022/06/07 03:44:55;;;;;;;5.37;3.73;;;16.20;66.60;;;;;;5031767;28;46417;-64
2022/06/07 03:47:21;;;;;;;5.83;3.90;;;16.20;66.50;;;;;;5029744;28;46458;-62
2022/06/07 03:49:47;;;;;;;6.97;3.60;;;16.20;66.20;;;;;;5030030;28;46415;-63
2022/06/07 03:52:13;;;;;;;7.40;3.80;;;16.30;66.20;;;;;;5031173;28;46332;-63
2022/06/07 03:54:39;;;;;;;5.93;3.70;;;16.30;66.20;;;;;;5032474;28;46221;-63
2022/06/07 03:57:05;;;;;;;8.10;4.10;;;16.20;66.20;;;;;;5031490;28;46394;-64
2022/06/07 03:59:31;;;;;;;6.20;3.53;;;16.30;66.10;;;;;;5026134;28;47123;-64
2022/06/07 04:01:57;;;;;;;7.27;3.40;;;16.30;66.00;;;;;;5033160;28;46532;-64
2022/06/07 04:04:23;;;;;;;4.37;3.27;;;16.30;65.90;;;;;;5031870;28;46398;-64
2022/06/07 04:09:39;;;;;;;8.43;3.30;;;16.30;65.90;;;;;;5033748;28;45921;-64
2022/06/07 04:12:15;;;;;;;5.00;3.47;;;16.20;66.30;;;;;;5034941;28;46350;-64
2022/06/07 04:14:43;;;;;;;11.57;3.13;;;16.10;66.30;;;;;;5033789;28;46667;-63
2022/06/07 04:17:10;;;;;;;5.90;3.70;;;16.20;66.40;;;;;;5037377;28;46439;-64
2022/06/07 04:19:36;;;;;;;7.87;4.03;;;16.30;66.10;;;;;;5031971;28;46663;-64
2022/06/07 04:22:03;;;;;;;7.10;3.80;;;16.30;65.80;;;;;;5033481;28;46452;-64
2022/06/07 04:24:28;;;;;;;7.37;3.33;;;16.30;65.70;;;;;;5031373;28;46390;-64
2022/06/07 04:26:54;;;;;;;7.97;3.63;;;16.30;65.80;;;;;;5032548;28;46363;-64
2022/06/07 04:29:20;;;;;;;8.60;4.13;;;16.40;65.80;;;;;;5031218;28;47222;-64
2022/06/07 04:31:45;;;;;;;7.53;5.00;;;16.40;65.60;;;;;;5031940;28;46387;-63
2022/06/07 04:34:11;;;;;;;7.77;5.57;;;16.50;65.40;;;;;;5028952;28;46441;-62
2022/06/07 04:36:37;;;;;;;10.70;4.53;;;16.50;65.20;;;;;;5032218;28;46370;-64
2022/06/07 04:39:05;;;;;;;6.10;3.60;;;16.50;65.30;;;;;;5029993;28;46728;-63
2022/06/07 04:41:32;;;;;;;7.00;3.53;;;16.40;65.80;;;;;;5030972;28;46493;-64
2022/06/07 04:43:58;;;;;;;5.43;3.70;;;16.40;66.00;;;;;;5029647;28;46351;-63
2022/06/07 04:46:25;;;;;;;5.10;3.67;;;16.50;66.00;;;;;;5028108;28;46326;-63
2022/06/07 04:48:51;;;;;;;5.93;3.03;;;16.60;65.70;;;;;;5030687;28;46362;-64
2022/06/07 04:51:31;;;;;;;7.13;4.27;;;16.70;65.30;;;;;;5027326;28;46387;-63
2022/06/07 04:54:00;;;;;;;5.10;3.43;;;16.80;65.20;;;;;;5031716;28;46417;-63
2022/06/07 04:56:29;;;;;;;6.93;3.30;;;16.80;65.20;;;;;;5027317;28;46377;-64
2022/06/07 04:58:55;;;;;;;10.73;4.20;;;16.80;65.20;;;;;;5027262;28;48066;-64
2022/06/07 05:01:24;;;;;;;5.77;3.50;;;16.80;65.10;;;;;;5031042;28;46405;-64
2022/06/07 05:03:51;;;;;;;5.87;4.10;;;16.80;64.90;;;;;;5032444;28;46435;-61
2022/06/07 05:06:37;;;;;;;6.50;3.93;;;16.90;64.90;;;;;;5030454;28;46446;-63
2022/06/07 05:09:06;;;;;;;5.97;3.93;;;16.80;64.90;;;;;;5025431;28;46776;-64
2022/06/07 05:11:32;;;;;;;5.20;3.77;;;16.90;64.70;;;;;;5036330;28;46549;-64
2022/06/07 05:13:59;;;;;;;5.10;3.60;;;16.90;64.80;;;;;;5035578;28;46299;-64
2022/06/07 05:16:26;;;;;;;6.33;3.70;;;16.90;64.70;;;;;;5032700;28;45978;-63
2022/06/07 05:18:53;;;;;;;6.80;4.00;;;16.90;65.00;;;;;;5034667;28;47190;-63
2022/06/07 05:21:20;;;;;;;9.57;5.30;;;16.90;65.30;;;;;;5029756;28;46401;-63
2022/06/07 05:23:46;;;;;;;8.07;4.83;;;16.90;65.60;;;;;;5031883;28;46365;-63
2022/06/07 05:26:24;;;;;;;8.27;4.77;;;16.80;65.70;;;;;;5033534;28;46336;-64
2022/06/07 05:28:49;;;;;;;7.10;4.87;;;16.90;65.80;;;;;;5030246;28;47068;-64
2022/06/07 05:31:15;;;;;;;5.40;4.30;;;16.90;65.60;;;;;;5029438;28;46394;-64
2022/06/07 05:33:41;;;;;;;7.00;5.00;;;16.90;65.60;;;;;;5032522;28;46424;-64
2022/06/07 05:36:07;;;;;;;7.73;5.30;;;16.90;65.80;;;;;;5031705;28;46464;-64
2022/06/07 05:38:32;;;;;;;6.23;4.53;;;16.90;65.90;;;;;;5031516;28;47015;-64
2022/06/07 05:40:58;;;;;;;6.00;3.63;;;16.90;65.90;;;;;;5028771;28;46621;-64
2022/06/07 05:43:24;;;;;;;10.27;4.20;;;16.90;65.90;;;;;;5029471;28;46382;-64
2022/06/07 05:45:51;;;;;;;4.70;3.60;;;16.90;65.80;;;;;;5034587;28;46409;-64
2022/06/07 05:48:17;;;;;;;4.90;3.90;;;16.90;65.80;;;;;;5029556;28;46575;-65
2022/06/07 05:50:44;;;;;;;5.17;3.67;;;16.90;65.90;;;;;;5028939;28;46286;-64
2022/06/07 05:53:10;;;;;;;6.23;3.83;;;16.90;66.00;;;;;;5033138;28;46453;-64
2022/06/07 05:55:36;;;;;;;5.30;3.30;;;16.90;66.20;;;;;;5031275;28;46667;-64
2022/06/07 05:58:02;;;;;;;5.90;3.80;;;16.90;66.00;;;;;;5031903;28;46428;-64
2022/06/07 06:00:28;;;;;;;6.83;4.60;;;16.90;65.90;;;;;;5027533;28;46493;-64
2022/06/07 06:02:53;;;;;;;6.20;3.93;;;17.00;66.00;;;;;;5032167;28;46347;-64
2022/06/07 06:05:19;;;;;;;5.90;4.40;;;17.00;65.90;;;;;;5030947;28;46392;-64
2022/06/07 06:10:28;;;;;;;8.17;4.63;;;17.00;65.80;;;;;;5034440;28;46334;-64
2022/06/07 06:12:54;;;;;;;8.13;4.47;;;17.00;65.80;;;;;;5032291;28;46291;-63
2022/06/07 06:15:21;;;;;;;5.50;4.43;;;17.00;65.90;;;;;;5034678;28;46544;-65
2022/06/07 06:17:47;;;;;;;7.50;4.90;;;17.00;66.00;;;;;;5035472;28;47856;-62
2022/06/07 06:20:13;;;;;;;5.63;4.30;;;17.00;66.00;;;;;;5034268;28;46604;-63
2022/06/07 06:22:38;;;;;;;5.20;3.97;;;17.10;66.00;;;;;;5035092;28;46338;-63
2022/06/07 06:25:06;;;;;;;6.17;4.20;;;17.10;65.80;;;;;;5036686;28;46376;-63
2022/06/07 06:27:32;;;;;;;4.43;3.00;;;17.20;65.80;;;;;;5031561;28;47116;-62
2022/06/07 06:29:58;;;;;;;4.70;3.40;;;17.20;65.70;;;;;;5038902;28;46445;-62
2022/06/07 06:32:24;;;;;;;5.07;3.40;;;17.10;65.90;;;;;;5029779;28;46388;-64
2022/06/07 06:34:50;;;;;;;7.60;3.57;;;17.20;65.80;;;;;;5033286;28;46449;-64
2022/06/07 06:37:16;;;;;;;5.20;3.30;;;17.20;65.50;;;;;;5032422;28;46374;-64
2022/06/07 06:39:42;;;;;;;6.90;3.37;;;17.20;65.60;;;;;;5033697;28;46430;-65
2022/06/07 06:42:08;;;;;;;7.50;3.40;;;17.20;65.50;;;;;;5037656;28;46507;-65
2022/06/07 06:44:34;;;;;;;5.77;3.60;;;17.20;65.30;;;;;;5037576;28;46540;-64
2022/06/07 06:47:01;;;;;;;11.57;3.47;;;17.30;65.20;;;;;;5035198;28;47037;-64
2022/06/07 06:49:27;;;;;;;7.30;3.70;;;17.30;65.10;;;;;;5033021;28;46403;-64
2022/06/07 06:51:54;;;;;;;6.60;3.53;;;17.30;65.00;;;;;;5032188;28;46433;-64
2022/06/07 06:54:20;;;;;;;5.37;3.70;;;17.30;65.10;;;;;;5038439;28;46444;-64
2022/06/07 06:56:47;;;;;;;7.60;3.83;;;17.20;65.30;;;;;;5033346;28;47057;-64
2022/06/07 06:59:13;;;;;;;5.33;3.60;;;17.10;65.70;;;;;;5033490;28;46456;-62
2022/06/07 07:01:40;;;;;;;7.10;3.73;;;17.10;65.80;;;;;;5034490;28;46343;-64
2022/06/07 07:04:16;;;;;;;8.50;4.30;;;17.00;66.10;;;;;;5031699;28;46445;-64
2022/06/07 07:06:42;;;;;;;6.37;3.80;;;17.00;66.20;;;;;;5032369;28;47269;-64
2022/06/07 07:09:08;;;;;;;6.57;4.33;;;16.90;66.20;;;;;;5029762;28;46215;-64
2022/06/07 07:11:44;;;;;;;5.60;4.17;;;16.80;66.70;;;;;;5035500;28;46468;-64
2022/06/07 07:14:11;;;;;;;7.63;4.90;;;16.70;67.00;;;;;;5030644;28;46473;-62
2022/06/07 07:16:55;;;;;;;7.70;5.13;;;16.70;67.00;;;;;;5035625;28;46369;-65
2022/06/07 07:19:22;;;;;;;9.90;5.40;;;16.80;66.90;;;;;;5028928;28;46441;-64
2022/06/07 07:21:50;;;;;;;8.40;4.13;;;16.90;66.40;;;;;;5031353;28;46512;-64
2022/06/07 07:24:19;;;;;;;9.73;4.43;;;16.90;66.40;;;;;;5031096;28;46717;-64
2022/06/07 07:26:45;;;;;;;11.03;5.07;;;16.90;66.50;;;;;;5033933;28;46630;-63
2022/06/07 07:29:14;;;;;;;6.97;4.47;;;16.90;66.70;;;;;;5031771;28;46654;-64
2022/06/07 07:31:40;;;;;;;10.53;4.30;;;16.90;66.90;;;;;;5027889;28;46357;-65
2022/06/07 07:34:09;;;;;;;9.40;4.50;;;16.90;66.70;;;;;;5034195;28;46371;-64
2022/06/07 07:36:36;;;;;;;8.80;4.70;;;17.00;66.70;;;;;;5031264;28;46626;-64
2022/06/07 07:39:02;;;;;;;7.40;4.10;;;17.10;66.60;;;;;;5031756;28;46421;-64
2022/06/07 07:41:30;;;;;;;8.17;4.37;;;16.90;66.70;;;;;;5035776;28;45843;-63
2022/06/07 07:43:59;;;;;;;9.77;4.53;;;16.90;67.00;;;;;;5031480;28;46588;-62
2022/06/07 07:46:28;;;;;;;9.53;4.37;;;17.00;67.00;;;;;;5031172;28;46393;-64
2022/06/07 07:48:54;;;;;;;5.40;3.73;;;16.90;67.30;;;;;;5034219;28;45852;-64
2022/06/07 07:51:23;;;;;;;9.80;4.57;;;16.70;67.70;;;;;;5038999;28;46519;-64
2022/06/07 07:53:50;;;;;;;9.93;4.40;;;16.70;67.60;;;;;;5030854;28;46284;-64
2022/06/07 07:56:16;;;;;;;7.43;4.83;;;16.60;67.40;;;;;;5034310;28;47013;-64
2022/06/07 07:58:42;;;;;;;7.13;5.00;;;16.40;68.00;;;;;;5030413;28;46281;-64
2022/06/07 08:01:10;;;;;;;13.17;4.53;;;16.50;68.00;;;;;;5030423;28;46291;-64
2022/06/07 08:03:38;;;;;;;5.83;4.03;;;16.40;68.00;;;;;;5034475;28;46477;-64
2022/06/07 08:06:06;;;;;;;6.23;4.27;;;16.40;67.90;;;;;;5029501;28;46918;-64
2022/06/07 08:08:32;;;;;;;5.37;3.60;;;16.30;68.10;;;;;;5032281;28;46496;-63
2022/06/07 08:10:57;;;;;;;7.03;3.70;;;16.30;68.20;;;;;;5031016;28;46418;-64
2022/06/07 08:13:23;;;;;;;6.57;3.97;;;16.10;68.80;;;;;;5033485;28;46371;-63
2022/06/07 08:15:48;;;;;;;7.53;3.17;;;16.00;68.80;;;;;;5034403;28;47168;-64
2022/06/07 08:18:14;;;;;;;5.53;3.23;;;16.00;68.60;;;;;;5031208;28;46374;-64
2022/06/07 08:20:40;;;;;;;4.90;2.63;;;16.10;68.50;;;;;;5032142;28;46366;-64
2022/06/07 08:23:07;;;;;;;4.10;2.53;;;16.10;68.30;;;;;;5029889;28;45828;-65
2022/06/07 08:25:33;;;;;;;8.47;3.20;;;16.20;68.00;;;;;;5028444;28;47449;-64
2022/06/07 08:28:02;;;;;;;5.13;2.90;;;16.20;67.70;;;;;;5032390;28;45828;-63
2022/06/07 08:30:27;;;;;;;4.30;2.77;;;16.20;67.50;;;;;;5028032;28;46457;-64
2022/06/07 08:32:53;;;;;;;10.33;3.23;;;16.10;67.10;;;;;;5032745;28;46354;-64
2022/06/07 08:38:04;;;;;;;5.53;3.20;;;16.10;67.40;;;;;;5031718;28;46926;-62
2022/06/07 08:40:35;;;;;;;7.40;3.07;;;16.10;67.30;;;;;;5028631;28;46449;-63
2022/06/07 08:43:07;;;;;;;7.70;2.80;;;16.10;67.10;;;;;;5030990;28;46537;-63
2022/06/07 08:45:38;;;;;;;4.00;2.87;;;16.20;67.00;;;;;;5032997;28;47301;-63
2022/06/07 08:48:14;;;;;;;4.03;2.87;;;16.20;66.90;;;;;;5030536;28;46515;-64
2022/06/07 08:50:48;;;;;;;9.70;2.87;;;16.30;66.20;;;;;;5027917;28;46492;-63
2022/06/07 08:53:25;;;;;;;4.90;2.93;;;16.50;65.70;;;;;;5036208;28;46229;-64
2022/06/07 08:55:56;;;;;;;5.43;3.27;;;16.70;65.60;;;;;;5026617;28;46479;-64
2022/06/07 08:58:34;;;;;;;6.30;3.23;;;16.70;65.10;;;;;;5033427;28;46556;-62
2022/06/07 09:01:10;;;;;;;13.60;3.00;;;16.90;64.60;;;;;;5028028;28;46373;-62
2022/06/07 09:03:56;;;;;;;6.20;3.30;;;16.90;64.40;;;;;;5031518;28;46504;-64
2022/06/07 09:06:25;;;;;;;4.50;2.80;;;17.10;64.10;;;;;;5028816;28;47248;-64
2022/06/07 09:08:54;;;;;;;6.10;3.70;;;17.20;63.90;;;;;;5031293;28;46777;-64
2022/06/07 09:14:25;;;;;;;4.30;3.00;;;17.20;64.10;;;;;;5030794;28;46467;-66
2022/06/07 09:16:54;;;;;;;6.50;2.87;;;17.40;63.50;;;;;;5030119;28;46407;-64
2022/06/07 09:19:24;;;;;;;6.43;3.60;;;17.70;62.90;;;;;;5031923;28;46422;-63
2022/06/07 09:21:50;;;;;;;3.70;2.67;;;18.10;61.70;;;;;;5029764;28;46444;-62
2022/06/07 09:24:30;;;;;;;7.80;3.67;;;18.30;61.50;;;;;;5032457;28;46401;-62
2022/06/07 09:27:20;;;;;;;6.60;2.93;;;18.30;61.20;;;;;;5028813;28;47091;-64
2022/06/07 09:29:55;;;;;;;7.60;2.90;;;18.00;61.70;;;;;;5027893;28;46557;-64
2022/06/07 09:32:23;;;;;;;5.03;2.60;;;18.00;61.40;;;;;;5033190;28;46340;-64
2022/06/07 09:35:06;;;;;;;6.33;3.23;;;17.90;63.00;;;;;;5028767;28;46351;-64
2022/06/07 09:37:48;;;;;;;8.20;2.60;;;17.50;62.70;;;;;;5029795;28;48196;-64
2022/06/07 09:40:31;;;;;;;5.67;2.40;;;17.40;62.90;;;;;;5031465;28;46217;-64
2022/06/07 09:43:05;;;;;;;4.20;2.40;;;17.30;63.40;;;;;;5031113;28;46422;-64
2022/06/07 09:45:37;;;;;;;4.00;2.50;;;17.40;63.30;;;;;;5030013;28;46579;-64
2022/06/07 09:48:36;;;;;;;3.97;2.20;;;17.60;62.80;;;;;;5030401;28;46425;-64
2022/06/07 09:51:21;;;;;;;4.97;3.30;;;18.10;61.50;;;;;;5031307;28;45800;-64
2022/06/07 09:53:59;;;;;;;4.27;2.73;;;18.70;59.70;;;;;;5026440;28;46382;-64
2022/06/07 09:57:00;;;;;;;4.20;2.60;;;19.00;59.80;;;;;;5032263;28;46257;-63
2022/06/07 09:59:45;;;;;;;5.83;2.80;;;19.20;58.80;;;;;;5030292;28;46527;-64
2022/06/07 10:02:45;;;;;;;4.53;2.50;;;19.40;58.20;;;;;;5033202;28;46410;-64
2022/06/07 10:05:25;;;;;;;6.33;2.57;;;19.60;57.30;;;;;;5033864;28;46326;-65
2022/06/07 10:08:19;;;;;;;3.50;2.30;;;20.00;56.40;;;;;;5032814;28;46369;-64
2022/06/07 10:11:01;;;;;;;4.40;2.60;;;20.30;56.00;;;;;;5035189;28;47246;-63
2022/06/07 10:13:49;;;;;;;3.57;2.10;;;20.60;55.10;;;;;;5026859;28;46302;-63
2022/06/07 10:16:35;;;;;;;6.63;2.53;;;20.80;54.30;;;;;;5036392;28;46466;-62
2022/06/07 10:19:32;;;;;;;5.93;2.70;;;20.60;54.50;;;;;;5029839;28;46451;-63
2022/06/07 10:22:27;;;;;;;6.70;2.93;;;20.60;54.60;;;;;;5031675;28;46552;-63
2022/06/07 10:25:14;;;;;;;5.07;2.47;;;20.60;54.60;;;;;;5032397;28;46359;-64
2022/06/07 10:28:16;;;;;;;3.87;2.40;;;20.40;55.20;;;;;;5028956;28;45824;-64
2022/06/07 10:30:52;;;;;;;3.30;2.10;;;20.60;54.50;;;;;;5024595;28;46319;-63
2022/06/07 10:33:44;;;;;;;3.20;2.03;;;20.70;54.20;;;;;;5032158;28;46417;-63
2022/06/07 10:36:24;;;;;;;4.57;2.50;;;20.80;53.80;;;;;;5027232;28;46464;-63
2022/06/07 10:39:01;;;;;;;9.10;2.30;;;21.20;53.20;;;;;;5029294;28;46849;-63
2022/06/07 10:41:52;;;;;;;3.33;2.17;;;21.50;51.90;;;;;;5032560;28;46315;-63
2022/06/07 10:44:29;;;;;;;4.50;1.97;;;21.80;50.50;;;;;;5029733;28;47273;-63
2022/06/07 10:46:55;;;;;;;3.67;1.90;;;21.90;50.00;;;;;;5025846;28;46296;-62
2022/06/07 10:49:39;;;;;;;3.60;2.00;;;21.90;50.00;;;;;;5027873;28;46414;-63
2022/06/07 10:52:38;;;;;;;3.50;1.77;;;22.00;49.50;;;;;;5028305;28;46287;-62
2022/06/07 10:55:09;;;;;;;3.93;1.50;;;22.10;49.60;;;;;;5025588;28;46534;-64
2022/06/07 10:57:54;;;;;;;2.90;1.50;;;22.40;49.00;;;;;;5024970;28;46472;-63
2022/06/07 11:00:32;;;;;;;4.67;1.50;;;22.50;48.40;;;;;;5032720;28;46310;-63
2022/06/07 11:03:26;;;;;;;3.03;1.50;;;22.70;47.80;;;;;;5034585;28;46417;-63
2022/06/07 11:09:31;;;;;;;2.93;1.20;;;23.00;46.70;;;;;;5032640;28;45986;-64
2022/06/07 11:12:04;;;;;;;3.50;1.90;;;23.40;45.80;;;;;;5035182;28;46444;-63
2022/06/07 11:15:04;;;;;;;3.03;1.47;;;23.50;44.80;;;;;;5037872;28;46449;-64
2022/06/07 11:17:52;;;;;;;3.90;1.30;;;23.80;43.20;;;;;;5031860;28;47984;-63
2022/06/07 11:20:27;;;;;;;4.30;1.37;;;24.10;42.10;;;;;;5033374;28;46344;-63
2022/06/07 11:23:12;;;;;;;4.90;1.43;;;24.10;41.90;;;;;;5031164;28;46512;-63
2022/06/07 11:25:41;;;;;;;4.57;1.40;;;24.10;40.90;;;;;;5029110;28;46427;-63
2022/06/07 11:28:19;;;;;;;3.87;1.20;;;24.20;40.70;;;;;;5033917;28;46667;-63
2022/06/07 11:30:52;;;;;;;2.83;1.27;;;24.30;38.10;;;;;;5025876;28;46417;-62
2022/06/07 11:33:39;;;;;;;4.67;1.20;;;24.50;38.90;;;;;;5039568;28;46413;-63
2022/06/07 11:36:13;;;;;;;5.27;1.40;;;24.90;37.10;;;;;;5033829;28;45827;-63
2022/06/07 11:38:56;;;;;;;2.87;1.30;;;25.00;37.20;;;;;;5032473;28;46646;-63
2022/06/07 11:41:37;;;;;;;5.70;1.40;;;24.50;37.00;;;;;;5036154;28;46412;-63
2022/06/07 11:44:10;;;;;;;2.47;1.33;;;24.20;37.70;;;;;;5034702;28;46487;-63
2022/06/07 11:46:35;;;;;;;3.03;1.23;;;24.00;37.70;;;;;;5030682;28;46797;-63
2022/06/07 11:49:25;;;;;;;2.70;1.40;;;23.90;38.00;;;;;;5036445;28;46920;-64
2022/06/07 11:51:53;;;;;;;4.00;1.40;;;23.70;37.40;;;;;;5031827;28;46422;-63
2022/06/07 11:54:25;;;;;;;6.80;1.40;;;23.70;37.40;;;;;;5037584;28;46445;-62
2022/06/07 11:56:55;;;;;;;4.50;1.30;;;23.80;37.50;;;;;;5031355;28;45919;-67
2022/06/07 11:59:21;;;;;;;2.73;1.37;;;23.70;37.40;;;;;;5030137;28;46398;-62
2022/06/07 12:02:07;;;;;;;3.90;1.40;;;23.70;37.40;;;;;;5029867;28;46694;-63
2022/06/07 12:04:41;;;;;;;3.53;1.40;;;24.00;36.10;;;;;;5028923;28;46420;-62
2022/06/07 12:07:24;;;;;;;3.47;1.30;;;24.30;34.80;;;;;;5029620;28;46220;-64
2022/06/07 12:09:58;;;;;;;5.00;1.37;;;24.20;34.80;;;;;;5029962;28;47068;-64
2022/06/07 12:12:32;;;;;;;6.20;1.23;;;24.40;34.40;;;;;;5033633;28;46374;-65
2022/06/07 12:15:15;;;;;;;3.00;1.03;;;24.80;33.80;;;;;;5028029;28;46522;-60
2022/06/07 12:18:01;;;;;;;2.53;1.30;;;24.80;33.90;;;;;;5032266;28;46357;-61
2022/06/07 12:20:35;;;;;;;5.00;1.43;;;24.90;32.80;;;;;;5039127;28;46570;-61
2022/06/07 12:23:10;;;;;;;3.93;1.20;;;24.90;32.80;;;;;;5030577;28;46319;-62
2022/06/07 12:25:36;;;;;;;3.07;1.37;;;24.90;31.80;;;;;;5036759;28;46473;-61
2022/06/07 12:28:03;;;;;;;4.47;1.40;;;24.70;32.30;;;;;;5030626;28;46473;-61
2022/06/07 12:30:35;;;;;;;4.83;1.30;;;24.60;32.20;;;;;;5034077;28;46322;-60
2022/06/07 12:33:24;;;;;;;3.40;1.30;;;24.60;32.10;;;;;;5034653;28;46487;-63
2022/06/07 12:36:19;;;;;;;2.40;1.00;;;24.60;31.80;;;;;;5030158;28;46364;-62
2022/06/07 12:38:47;;;;;;;2.93;1.10;;;24.50;31.50;;;;;;5031303;28;46308;-63
2022/06/07 12:41:20;;;;;;;4.10;1.63;;;24.40;32.20;;;;;;5033336;28;47250;-61
2022/06/07 12:43:51;;;;;;;3.43;1.13;;;24.30;31.20;;;;;;5031252;28;46512;-61
2022/06/07 12:46:24;;;;;;;4.43;1.50;;;24.50;30.90;;;;;;5036099;28;46494;-61
2022/06/07 12:48:51;;;;;;;9.83;1.33;;;24.40;30.90;;;;;;5036017;28;46472;-61
2022/06/07 12:51:36;;;;;;;3.23;1.30;;;24.30;31.50;;;;;;5033798;28;46132;-61
2022/06/07 12:54:15;;;;;;;4.30;1.10;;;24.20;31.60;;;;;;5029324;28;46548;-60
2022/06/07 12:56:42;;;;;;;4.50;1.50;;;24.20;32.20;;;;;;5030054;28;46409;-60
2022/06/07 12:59:21;;;;;;;4.03;1.30;;;24.00;32.30;;;;;;5029846;28;46336;-61
2022/06/07 13:01:49;;;;;;;3.90;1.23;;;24.00;32.20;;;;;;5030427;28;47083;-61
2022/06/07 13:04:36;;;;;;;3.23;1.40;;;23.80;32.50;;;;;;5028152;28;46368;-60
2022/06/07 13:07:04;;;;;;;3.57;1.63;;;23.90;32.30;;;;;;5031639;28;46421;-61
2022/06/07 13:09:30;;;;;;;4.77;1.10;;;23.70;32.70;;;;;;5041309;28;46485;-61
2022/06/07 13:11:56;;;;;;;3.33;1.20;;;23.70;32.90;;;;;;5033778;28;47006;-61
2022/06/07 13:14:23;;;;;;;3.00;1.17;;;23.50;32.60;;;;;;5029242;28;46523;-61
2022/06/07 13:16:49;;;;;;;2.20;1.10;;;23.40;32.30;;;;;;5032951;28;46380;-61
2022/06/07 13:19:14;;;;;;;2.90;1.20;;;23.20;32.50;;;;;;5029182;28;46369;-61
2022/06/07 13:21:51;;;;;;;3.13;1.10;;;23.30;32.60;;;;;;5026895;28;46416;-62
2022/06/07 13:24:23;;;;;;;3.80;1.33;;;23.50;32.30;;;;;;5028229;28;46398;-61
2022/06/07 13:26:54;;;;;;;3.27;1.40;;;23.70;31.70;;;;;;5029421;28;46369;-62